Boyne City, MI

2:04 AM EST on January 31, 2015 (GMT -0500)
3.4 mi SSW of Boyne City | Change Station
CLOSE
Current Station
Personal Weather Station
Location: Boyne City, MI
Elevation: 820 ft
Nearby Weather Stations

Elev 820 ft 45.17 °N, 85.04 °W | Updated 1 second ago

Overcast
Overcast
15.5 °F
Feels Like 15 °F
N
1.8
Wind Variable Wind from South
Gusts 3.4 mph

Today
High -- | Low -- °F
--% Chance of Precip.
Yesterday
High -- | Low -- °F
Precip. -- in
8:01 AM 5:45 PM
Waxing Gibbous, 88% visible
Pressure 30.27 in
Visibility 7.0 miles
Clouds Scattered Clouds 1400 ft
Scattered Clouds 2900 ft
Overcast 3900 ft
Windchill 15 °F
Dew Point 10 °F
Humidity 78%
Rainfall 0.00 in
Snow Depth Not available.
UV 0 out of 12
Pollen .10 out of 12
Air Quality Not available.
Flu Activity Not available.
METAR KCVX 310654Z AUTO 17007KT 7SM -SN SCT014 SCT029 OVC039 M09/M11 A3027 RMK AO2 T10911112

More Conditions Fewer Conditions

Pressure 30.27 in
Visibility 7.0 miles
Clouds Scattered Clouds 1400 ft
Scattered Clouds 2900 ft
Overcast 3900 ft
Windchill 15 °F
Dew Point 10 °F
Humidity 78%
Rainfall 0.00 in
Snow Depth Not available.
UV 0 out of 12
Pollen .10 out of 12
Air Quality Not available.
Flu Activity Not available.
METAR KCVX 310654Z AUTO 17007KT 7SM -SN SCT014 SCT029 OVC039 M09/M11 A3027 RMK AO2 T10911112

More Conditions Fewer Conditions

Nowcast | as of 2:00 am EST on January 31, 2015

At 3 am...snow. Temperature 19. South winds 5 mph. At 5 am...snow. Temperature 19. Southwest winds 7 mph. At 7 am...cloudy. Chance of flurries. Temperature 19. South winds 6 mph. At 9 am...cloudy. Chance of flurries. Temperature 22. Southwest winds 8 mph.

×

10-Day Weather Forecast

Almanac

Astronomy

Jan. 31, 2015 Rise Set
Actual Time
Civil Twilight
Nautical Twilight
Astronomical Twilight
Moon
Length of Visible Light
Length of Day
Tomorrow will be .
, % of the Moon is Illuminated

Today's Extremes

State Highs State Lows

Community

WunderPhotos

Upload Photos

1,792,014 photos uploaded!

WunderBlogs® & News

Nearby

Air Quality

  Air Quality AQ Index Pollutant
Not available.

Snow Depth

Station Depth Elevation

Earthquake Activity

City Distance Mag. Time & Date
Minimum magnitude displayed is 2.5.

Coastal Water Temperatures

Place Temperature

Nearby Weather Stations